createdAt,value
2018-09-10T00:00:03.501Z,14.10
2018-09-10T00:02:31.246Z,14.10
2018-09-10T00:04:58.956Z,14.10
2018-09-10T00:07:26.689Z,14.20
2018-09-10T00:09:54.409Z,14.20
2018-09-10T00:12:22.141Z,14.20
2018-09-10T00:14:49.849Z,14.10
2018-09-10T00:17:17.592Z,14.20
2018-09-10T00:19:45.313Z,14.10
2018-09-10T00:22:13.069Z,14.00
2018-09-10T00:24:40.786Z,13.90
2018-09-10T00:27:08.530Z,13.90
2018-09-10T00:29:36.361Z,13.90
2018-09-10T00:32:04.073Z,13.80
2018-09-10T00:34:31.805Z,13.80
2018-09-10T00:36:59.548Z,13.90
2018-09-10T00:39:27.285Z,13.90
2018-09-10T00:41:54.993Z,13.80
2018-09-10T00:44:22.729Z,13.80
2018-09-10T00:46:50.440Z,13.70
2018-09-10T00:49:18.178Z,13.60
2018-09-10T00:51:45.897Z,13.60
2018-09-10T00:54:13.625Z,13.50
2018-09-10T00:56:41.337Z,13.40
2018-09-10T00:59:09.210Z,13.40
2018-09-10T01:01:36.937Z,13.40
2018-09-10T01:04:04.689Z,13.50
2018-09-10T01:06:32.405Z,13.50
2018-09-10T01:09:00.140Z,13.50
2018-09-10T01:11:27.854Z,13.50
2018-09-10T01:13:55.589Z,13.50
2018-09-10T01:16:23.300Z,13.50
2018-09-10T01:18:51.024Z,13.40
2018-09-10T01:21:18.732Z,13.50
2018-09-10T01:23:46.481Z,13.40
2018-09-10T01:26:14.197Z,13.30
2018-09-10T01:28:41.924Z,13.30
2018-09-10T01:31:09.629Z,13.30
2018-09-10T01:33:42.781Z,13.30
2018-09-10T01:36:10.509Z,13.30
2018-09-10T01:38:38.253Z,13.20
2018-09-10T01:41:05.980Z,13.00
2018-09-10T01:43:33.714Z,13.10
2018-09-10T01:46:01.429Z,13.20
2018-09-10T01:48:29.187Z,13.20
2018-09-10T01:50:56.900Z,13.10
2018-09-10T01:53:24.636Z,13.00
2018-09-10T01:55:52.358Z,13.10
2018-09-10T01:58:20.096Z,13.00
2018-09-10T02:00:47.814Z,13.00
2018-09-10T02:03:15.592Z,13.00
2018-09-10T02:05:43.309Z,13.00
2018-09-10T02:08:11.022Z,13.00
2018-09-10T02:10:38.753Z,12.90
2018-09-10T02:13:06.472Z,12.80
2018-09-10T02:15:38.489Z,12.90
2018-09-10T02:18:06.327Z,12.90
2018-09-10T02:20:34.057Z,12.90
2018-09-10T02:23:01.789Z,13.00
2018-09-10T02:25:29.525Z,12.90
2018-09-10T02:27:57.237Z,12.90
2018-09-10T02:30:25.078Z,12.80
2018-09-10T02:32:52.786Z,12.90
2018-09-10T02:35:20.568Z,12.80
2018-09-10T02:37:48.281Z,12.80
2018-09-10T02:40:16.021Z,12.90
2018-09-10T02:42:43.730Z,12.90
2018-09-10T02:45:11.461Z,12.90
2018-09-10T02:47:39.167Z,12.90
2018-09-10T02:50:06.904Z,12.70
2018-09-10T02:52:34.643Z,12.70
2018-09-10T02:55:02.386Z,12.60
2018-09-10T02:57:36.874Z,12.50
2018-09-10T03:00:04.977Z,12.60
2018-09-10T03:02:32.706Z,12.60
2018-09-10T03:05:00.417Z,12.60
2018-09-10T03:07:28.469Z,12.60
2018-09-10T03:09:56.186Z,12.60
2018-09-10T03:12:23.958Z,12.50
2018-09-10T03:14:51.657Z,12.50
2018-09-10T03:17:19.385Z,12.50
2018-09-10T03:19:47.115Z,12.50
2018-09-10T03:22:14.877Z,12.40
2018-09-10T03:24:42.585Z,12.40
2018-09-10T03:27:10.321Z,12.40
2018-09-10T03:29:38.209Z,12.50
2018-09-10T03:32:06.124Z,12.50
2018-09-10T03:34:33.854Z,12.40
2018-09-10T03:37:01.564Z,12.40
2018-09-10T03:39:29.302Z,12.40
2018-09-10T03:41:57.021Z,12.30
2018-09-10T03:44:24.765Z,12.20
2018-09-10T03:46:52.477Z,12.20
2018-09-10T03:49:20.210Z,12.20
2018-09-10T03:51:47.922Z,12.30
2018-09-10T03:54:15.661Z,12.30
2018-09-10T03:56:43.379Z,12.10
2018-09-10T03:59:11.113Z,12.10
2018-09-10T04:01:38.826Z,12.10
2018-09-10T04:04:06.625Z,12.00
2018-09-10T04:06:34.333Z,12.00
2018-09-10T04:09:02.064Z,11.90
2018-09-10T04:11:29.785Z,11.80
2018-09-10T04:13:57.530Z,11.80
2018-09-10T04:16:25.249Z,11.80
2018-09-10T04:18:53.037Z,11.80
2018-09-10T04:21:20.781Z,11.80
2018-09-10T04:23:48.530Z,11.80
2018-09-10T04:26:16.264Z,11.80
2018-09-10T04:28:43.998Z,11.80
2018-09-10T04:31:11.930Z,11.80
2018-09-10T04:33:39.661Z,11.80
2018-09-10T04:36:07.369Z,11.80
2018-09-10T04:38:35.121Z,11.90
2018-09-10T04:41:02.866Z,11.90
2018-09-10T04:43:30.601Z,11.80
2018-09-10T04:45:58.354Z,11.80
2018-09-10T04:48:26.069Z,11.80
2018-09-10T04:50:53.970Z,11.90
2018-09-10T04:53:21.708Z,11.90
2018-09-10T04:55:49.450Z,11.90
2018-09-10T04:58:17.200Z,12.00
2018-09-10T05:00:44.927Z,11.90
2018-09-10T05:03:12.649Z,12.00
2018-09-10T05:05:40.386Z,11.90
2018-09-10T05:08:08.132Z,11.90
2018-09-10T05:10:35.869Z,12.00
2018-09-10T05:13:03.590Z,11.90
2018-09-10T05:15:31.373Z,12.00
2018-09-10T05:17:59.086Z,12.00
2018-09-10T05:20:26.845Z,12.10
2018-09-10T05:22:54.593Z,12.00
2018-09-10T05:25:22.317Z,12.00
2018-09-10T05:27:50.856Z,12.10
2018-09-10T05:30:18.861Z,12.10
2018-09-10T05:32:46.637Z,12.00
2018-09-10T05:35:14.350Z,12.10
2018-09-10T05:37:42.109Z,12.20
2018-09-10T05:40:10.441Z,12.10
2018-09-10T05:42:38.545Z,12.20
2018-09-10T05:45:08.605Z,12.30
2018-09-10T05:47:36.433Z,12.40
2018-09-10T05:50:04.136Z,12.60
2018-09-10T05:52:32.142Z,13.20
2018-09-10T05:54:59.966Z,15.80
2018-09-10T05:57:28.054Z,17.40
2018-09-10T05:59:55.765Z,18.10
2018-09-10T06:02:23.589Z,18.50
2018-09-10T06:04:51.741Z,18.90
2018-09-10T06:07:19.605Z,18.90
2018-09-10T06:09:48.321Z,19.20
2018-09-10T06:12:16.289Z,19.20
2018-09-10T06:14:44.059Z,19.20
2018-09-10T06:17:11.769Z,19.60
2018-09-10T06:19:39.515Z,20.00
2018-09-10T06:22:07.265Z,20.40
2018-09-10T06:24:35.001Z,20.60
2018-09-10T06:27:02.722Z,20.60
2018-09-10T06:29:30.462Z,20.60
2018-09-10T06:31:58.190Z,21.30
2018-09-10T06:34:25.958Z,21.30
2018-09-10T06:36:53.664Z,21.40
2018-09-10T06:39:21.397Z,21.60
2018-09-10T06:41:49.109Z,22.10
2018-09-10T06:44:16.857Z,22.20
2018-09-10T06:46:44.574Z,22.10
2018-09-10T06:49:12.317Z,22.40
2018-09-10T06:51:42.842Z,22.60
2018-09-10T06:54:12.489Z,22.80
2018-09-10T06:56:40.255Z,23.60
2018-09-10T06:59:08.233Z,24.00
2018-09-10T07:01:35.957Z,24.50
2018-09-10T07:04:03.817Z,24.60
2018-09-10T07:06:31.663Z,25.10
2018-09-10T07:08:59.333Z,24.80
2018-09-10T07:11:27.075Z,23.90
2018-09-10T07:13:54.813Z,24.90
2018-09-10T07:16:22.520Z,25.30
2018-09-10T07:18:50.400Z,24.30
2018-09-10T07:21:17.989Z,23.50
2018-09-10T07:23:45.758Z,23.60
2018-09-10T07:26:13.473Z,23.80
2018-09-10T07:28:41.225Z,25.80
2018-09-10T07:31:08.951Z,26.20
2018-09-10T07:33:36.693Z,27.20
2018-09-10T07:36:04.405Z,27.30
2018-09-10T07:38:32.140Z,25.90
2018-09-10T07:40:59.865Z,25.10
2018-09-10T07:43:27.628Z,25.40
2018-09-10T07:45:55.354Z,25.20
2018-09-10T07:48:23.097Z,25.50
2018-09-10T07:50:50.827Z,25.10
2018-09-10T07:53:18.579Z,24.60
2018-09-10T07:55:46.302Z,24.70
2018-09-10T07:58:14.046Z,24.80
2018-09-10T08:00:41.795Z,23.80
2018-09-10T08:03:09.616Z,24.10
2018-09-10T08:05:37.288Z,24.50
2018-09-10T08:08:05.034Z,24.70
2018-09-10T08:10:32.784Z,24.60
2018-09-10T08:13:00.511Z,24.50
2018-09-10T08:15:28.230Z,23.10
2018-09-10T08:17:55.974Z,23.60
2018-09-10T08:20:23.688Z,24.00
2018-09-10T08:22:51.553Z,23.50
2018-09-10T08:25:19.281Z,23.50
2018-09-10T08:27:47.033Z,23.60
2018-09-10T08:30:14.751Z,23.40
2018-09-10T08:32:42.520Z,23.90
2018-09-10T08:35:10.757Z,24.40
2018-09-10T08:37:38.542Z,24.50
2018-09-10T08:40:06.281Z,24.90
2018-09-10T08:42:33.993Z,25.20
2018-09-10T08:45:01.734Z,25.20
2018-09-10T08:47:29.438Z,25.10
2018-09-10T08:49:57.190Z,25.00
2018-09-10T08:52:25.150Z,24.90
2018-09-10T08:54:53.065Z,25.10
2018-09-10T08:57:20.633Z,25.50
2018-09-10T08:59:48.405Z,25.90
2018-09-10T09:02:16.129Z,26.20
2018-09-10T09:04:43.865Z,25.90
2018-09-10T09:07:11.582Z,26.40
2018-09-10T09:09:39.330Z,26.50
2018-09-10T09:12:07.053Z,26.70
2018-09-10T09:14:34.793Z,25.50
2018-09-10T09:17:02.515Z,25.80
2018-09-10T09:19:30.253Z,25.30
2018-09-10T09:21:57.989Z,26.40
2018-09-10T09:24:25.710Z,26.90
2018-09-10T09:26:53.469Z,27.40
2018-09-10T09:29:21.269Z,27.40
2018-09-10T09:31:49.013Z,27.90
2018-09-10T09:34:16.733Z,28.30
2018-09-10T09:36:49.965Z,28.10
2018-09-10T09:39:23.281Z,28.80
2018-09-10T09:41:56.500Z,28.40
2018-09-10T09:44:29.669Z,26.90
2018-09-10T09:46:57.409Z,27.70
2018-09-10T09:49:38.357Z,27.30
2018-09-10T09:52:06.246Z,27.50
2018-09-10T09:54:33.964Z,28.00
2018-09-10T09:57:01.665Z,27.30
2018-09-10T09:59:29.353Z,27.50
2018-09-10T10:02:02.509Z,28.10
2018-09-10T10:04:30.267Z,27.40
2018-09-10T10:06:57.942Z,27.90
2018-09-10T10:09:25.633Z,27.60
2018-09-10T10:11:53.411Z,27.20
2018-09-10T10:14:21.065Z,27.60
2018-09-10T10:16:48.779Z,27.90
2018-09-10T10:19:16.477Z,27.00
2018-09-10T10:21:44.196Z,27.80
2018-09-10T10:24:11.917Z,28.10
2018-09-10T10:26:39.637Z,28.30
2018-09-10T10:29:07.366Z,27.90
2018-09-10T10:31:35.065Z,27.50
2018-09-10T10:34:02.800Z,27.30
2018-09-10T10:36:30.498Z,27.70
2018-09-10T10:38:58.234Z,27.50
2018-09-10T10:41:25.924Z,27.30
2018-09-10T10:43:53.700Z,27.60
2018-09-10T10:46:21.369Z,27.70
2018-09-10T10:48:49.086Z,27.60
2018-09-10T10:51:16.792Z,28.60
2018-09-10T10:53:44.520Z,29.30
2018-09-10T10:56:12.227Z,29.20
2018-09-10T10:58:40.029Z,29.30
2018-09-10T11:01:07.802Z,29.20
2018-09-10T11:03:35.503Z,29.40
2018-09-10T11:06:03.220Z,29.00
2018-09-10T11:08:30.910Z,30.40
2018-09-10T11:10:58.632Z,29.40
2018-09-10T11:13:26.345Z,30.90
2018-09-10T11:15:54.060Z,29.90
2018-09-10T11:18:21.762Z,30.00
2018-09-10T11:20:49.490Z,30.30
2018-09-10T11:23:17.183Z,30.40
2018-09-10T11:25:44.881Z,30.50
2018-09-10T11:28:12.606Z,30.50
2018-09-10T11:30:40.306Z,30.20
2018-09-10T11:33:08.078Z,30.50
2018-09-10T11:35:35.775Z,30.90
2018-09-10T11:38:03.510Z,30.40
2018-09-10T11:40:31.205Z,30.20
2018-09-10T11:42:58.928Z,30.50
2018-09-10T11:45:26.789Z,30.70
2018-09-10T11:47:54.491Z,31.10
2018-09-10T11:50:22.242Z,31.80
2018-09-10T11:52:49.951Z,31.20
2018-09-10T11:55:17.674Z,31.30
2018-09-10T11:57:45.411Z,31.30
2018-09-10T12:00:13.154Z,32.30
2018-09-10T12:02:40.869Z,31.80
2018-09-10T12:05:08.606Z,31.80
2018-09-10T12:07:36.311Z,31.70
2018-09-10T12:10:04.409Z,31.00
2018-09-10T12:12:32.105Z,31.90
2018-09-10T12:14:59.869Z,31.00
2018-09-10T12:17:27.709Z,32.40
2018-09-10T12:19:55.502Z,33.20
2018-09-10T12:22:23.197Z,32.30
2018-09-10T12:24:50.925Z,32.00
2018-09-10T12:27:18.641Z,32.30
2018-09-10T12:29:46.341Z,31.60
2018-09-10T12:32:14.203Z,31.60
2018-09-10T12:34:41.865Z,32.10
2018-09-10T12:37:09.591Z,32.20
2018-09-10T12:39:37.364Z,32.30
2018-09-10T12:42:06.239Z,32.20
2018-09-10T12:44:33.943Z,32.40
2018-09-10T12:47:01.650Z,32.70
2018-09-10T12:49:29.369Z,32.50
2018-09-10T12:51:57.077Z,32.70
2018-09-10T12:54:24.793Z,32.60
2018-09-10T12:56:52.507Z,33.20
2018-09-10T12:59:20.258Z,32.70
2018-09-10T13:01:47.957Z,32.40
2018-09-10T13:04:15.729Z,32.40
2018-09-10T13:06:43.410Z,32.80
2018-09-10T13:09:11.149Z,32.70
2018-09-10T13:11:38.910Z,32.70
2018-09-10T13:14:06.640Z,32.70
2018-09-10T13:16:36.606Z,32.50
2018-09-10T13:19:04.329Z,32.10
2018-09-10T13:21:32.061Z,32.10
2018-09-10T13:23:59.773Z,32.10
2018-09-10T13:26:27.514Z,32.20
2018-09-10T13:28:55.214Z,32.20
2018-09-10T13:31:22.927Z,33.00
2018-09-10T13:33:50.926Z,32.60
2018-09-10T13:36:18.621Z,32.30
2018-09-10T13:38:46.365Z,32.20
2018-09-10T13:41:14.065Z,31.80
2018-09-10T13:43:41.791Z,31.60
2018-09-10T13:46:09.497Z,31.80
2018-09-10T13:48:37.253Z,32.00
2018-09-10T13:51:04.984Z,32.00
2018-09-10T13:53:32.693Z,31.80
2018-09-10T13:56:00.422Z,31.90
2018-09-10T13:58:28.151Z,31.70
2018-09-10T14:00:55.888Z,31.70
2018-09-10T14:03:23.586Z,31.70
2018-09-10T14:05:51.314Z,31.40
2018-09-10T14:08:19.018Z,31.70
2018-09-10T14:10:46.759Z,31.80
2018-09-10T14:13:14.473Z,31.40
2018-09-10T14:15:42.190Z,31.70
2018-09-10T14:18:10.152Z,31.70
2018-09-10T14:20:37.870Z,31.20
2018-09-10T14:23:05.660Z,30.80
2018-09-10T14:25:33.365Z,31.30
2018-09-10T14:28:01.273Z,31.00
2018-09-10T14:30:28.997Z,31.00
2018-09-10T14:32:56.706Z,31.20
2018-09-10T14:35:24.442Z,31.30
2018-09-10T14:37:52.137Z,30.90
2018-09-10T14:40:19.857Z,30.90
2018-09-10T14:42:47.576Z,31.00
2018-09-10T14:45:15.340Z,31.10
2018-09-10T14:47:43.050Z,30.80
2018-09-10T14:50:10.810Z,30.80
2018-09-10T14:52:38.665Z,30.90
2018-09-10T14:55:06.447Z,30.20
2018-09-10T14:57:34.178Z,30.30
2018-09-10T15:00:01.913Z,30.50
2018-09-10T15:02:29.661Z,30.60
2018-09-10T15:04:57.357Z,30.40
2018-09-10T15:07:25.056Z,29.90
2018-09-10T15:09:52.805Z,29.90
2018-09-10T15:12:20.573Z,29.90
2018-09-10T15:14:48.290Z,30.30
2018-09-10T15:17:15.980Z,30.30
2018-09-10T15:19:44.301Z,30.40
2018-09-10T15:22:12.033Z,30.20
2018-09-10T15:24:39.822Z,29.80
2018-09-10T15:27:07.550Z,29.60
2018-09-10T15:29:35.243Z,29.40
2018-09-10T15:32:02.972Z,29.40
2018-09-10T15:34:30.738Z,29.50
2018-09-10T15:36:58.415Z,29.50
2018-09-10T15:39:26.277Z,29.30
2018-09-10T15:41:54.020Z,29.10
2018-09-10T15:44:21.730Z,29.00
2018-09-10T15:46:49.424Z,28.90
2018-09-10T15:49:17.166Z,28.90
2018-09-10T15:51:44.861Z,28.80
2018-09-10T15:54:12.590Z,28.90
2018-09-10T15:56:40.345Z,28.50
2018-09-10T15:59:08.085Z,28.30
2018-09-10T16:01:35.813Z,28.30
2018-09-10T16:04:03.521Z,28.30
2018-09-10T16:06:31.245Z,27.90
2018-09-10T16:08:58.938Z,27.90
2018-09-10T16:11:26.662Z,27.80
2018-09-10T16:13:54.352Z,27.80
2018-09-10T16:16:22.052Z,27.70
2018-09-10T16:18:49.881Z,27.70
2018-09-10T16:21:17.590Z,27.60
2018-09-10T16:23:45.738Z,27.40
2018-09-10T16:26:13.508Z,27.30
2018-09-10T16:28:41.204Z,27.10
2018-09-10T16:31:08.956Z,26.90
2018-09-10T16:33:36.664Z,26.60
2018-09-10T16:36:04.389Z,26.50
2018-09-10T16:38:32.121Z,26.50
2018-09-10T16:40:59.896Z,26.20
2018-09-10T16:43:27.573Z,25.90
2018-09-10T16:45:55.508Z,25.80
2018-09-10T16:48:23.340Z,25.60
2018-09-10T16:50:51.221Z,25.40
2018-09-10T16:53:18.984Z,25.40
2018-09-10T16:55:46.691Z,25.50
2018-09-10T16:58:14.433Z,25.40
2018-09-10T17:00:42.204Z,25.20
2018-09-10T17:03:09.889Z,25.10
2018-09-10T17:05:37.590Z,25.00
2018-09-10T17:08:05.302Z,25.20
2018-09-10T17:10:33.847Z,25.00
2018-09-10T17:13:01.582Z,24.80
2018-09-10T17:15:31.659Z,24.30
2018-09-10T17:17:59.441Z,24.30
2018-09-10T17:20:27.145Z,24.20
2018-09-10T17:22:56.287Z,24.00
2018-09-10T17:25:24.145Z,24.10
2018-09-10T17:27:54.869Z,24.00
2018-09-10T17:30:26.265Z,23.90
2018-09-10T17:32:57.231Z,23.80
2018-09-10T17:35:27.618Z,23.70
2018-09-10T17:37:57.603Z,23.50
2018-09-10T17:40:27.669Z,23.40
2018-09-10T17:42:56.905Z,23.30
2018-09-10T17:45:26.482Z,23.00
2018-09-10T17:47:54.276Z,22.70
2018-09-10T17:50:26.682Z,22.60
2018-09-10T17:52:54.385Z,22.30
2018-09-10T17:55:25.801Z,22.20
2018-09-10T17:57:55.239Z,22.20
2018-09-10T18:00:25.480Z,22.10
2018-09-10T18:02:55.677Z,22.00
2018-09-10T18:05:25.513Z,21.80
2018-09-10T18:07:54.930Z,21.60
2018-09-10T18:10:24.941Z,21.60
2018-09-10T18:12:55.225Z,21.50
2018-09-10T18:15:22.932Z,21.40
2018-09-10T18:17:50.669Z,21.10
2018-09-10T18:20:18.404Z,20.90
2018-09-10T18:22:48.014Z,20.90
2018-09-10T18:25:16.591Z,20.80
2018-09-10T18:27:47.397Z,20.60
2018-09-10T18:30:17.698Z,20.50
2018-09-10T18:32:46.612Z,20.50
2018-09-10T18:35:16.565Z,20.40
2018-09-10T18:37:48.502Z,20.20
2018-09-10T18:40:16.302Z,20.20
2018-09-10T18:42:45.642Z,20.10
2018-09-10T18:45:13.752Z,20.10
2018-09-10T18:47:41.515Z,20.00
2018-09-10T18:50:10.904Z,19.90
2018-09-10T18:52:40.325Z,19.90
2018-09-10T18:55:09.704Z,19.80
2018-09-10T18:57:38.749Z,19.70
2018-09-10T19:00:07.389Z,19.60
2018-09-10T19:02:37.878Z,19.60
2018-09-10T19:05:05.641Z,19.50
2018-09-10T19:07:34.249Z,19.40
2018-09-10T19:10:01.977Z,19.30
2018-09-10T19:12:29.691Z,19.30
2018-09-10T19:14:57.448Z,19.20
2018-09-10T19:17:26.969Z,19.20
2018-09-10T19:19:54.681Z,19.20
2018-09-10T19:22:22.424Z,19.10
2018-09-10T19:24:50.146Z,19.10
2018-09-10T19:27:17.879Z,19.10
2018-09-10T19:29:45.589Z,19.00
2018-09-10T19:32:14.273Z,19.00
2018-09-10T19:34:41.993Z,18.90
2018-09-10T19:37:10.486Z,18.80
2018-09-10T19:39:38.276Z,18.80
2018-09-10T19:42:06.021Z,18.80
2018-09-10T19:44:33.813Z,18.70
2018-09-10T19:47:01.553Z,18.70
2018-09-10T19:49:29.269Z,18.60
2018-09-10T19:51:58.097Z,18.50
2018-09-10T19:54:26.858Z,18.50
2018-09-10T19:56:57.638Z,18.40
2018-09-10T19:59:28.169Z,18.40
2018-09-10T20:01:55.909Z,18.40
2018-09-10T20:04:23.616Z,18.20
2018-09-10T20:06:52.160Z,18.20
2018-09-10T20:09:19.861Z,18.20
2018-09-10T20:11:47.585Z,18.20
2018-09-10T20:14:15.290Z,18.10
2018-09-10T20:16:43.018Z,18.10
2018-09-10T20:19:10.722Z,18.10
2018-09-10T20:21:38.577Z,18.00
2018-09-10T20:24:06.413Z,17.90
2018-09-10T20:26:34.122Z,17.90
2018-09-10T20:29:01.845Z,17.90
2018-09-10T20:31:29.573Z,17.90
2018-09-10T20:34:02.738Z,17.80
2018-09-10T20:36:30.441Z,17.80
2018-09-10T20:38:58.185Z,17.80
2018-09-10T20:41:25.890Z,17.70
2018-09-10T20:43:53.622Z,17.70
2018-09-10T20:46:21.325Z,17.70
2018-09-10T20:48:49.047Z,17.60
2018-09-10T20:51:16.771Z,17.70
2018-09-10T20:53:44.538Z,17.60
2018-09-10T20:56:12.340Z,17.50
2018-09-10T20:58:40.054Z,17.50
2018-09-10T21:01:07.858Z,17.50
2018-09-10T21:03:35.553Z,17.50
2018-09-10T21:06:03.282Z,17.50
2018-09-10T21:08:31.025Z,17.40
2018-09-10T21:10:58.725Z,17.40
2018-09-10T21:13:26.441Z,17.40
2018-09-10T21:15:54.139Z,17.40
2018-09-10T21:18:21.861Z,17.30
2018-09-10T21:20:49.578Z,17.20
2018-09-10T21:23:17.296Z,17.20
2018-09-10T21:25:45.018Z,17.20
2018-09-10T21:28:12.761Z,17.10
2018-09-10T21:30:40.460Z,17.00
2018-09-10T21:33:08.217Z,17.00
2018-09-10T21:35:35.902Z,16.90
2018-09-10T21:38:03.623Z,16.90
2018-09-10T21:40:31.344Z,16.80
2018-09-10T21:42:59.057Z,16.90
2018-09-10T21:45:26.781Z,16.90
2018-09-10T21:47:54.648Z,16.90
2018-09-10T21:50:22.372Z,16.90
2018-09-10T21:52:50.303Z,16.90
2018-09-10T21:55:18.046Z,16.90
2018-09-10T21:57:45.757Z,16.80
2018-09-10T22:00:13.537Z,16.80
2018-09-10T22:02:41.278Z,16.80
2018-09-10T22:05:09.061Z,16.70
2018-09-10T22:07:36.780Z,16.70
2018-09-10T22:10:04.910Z,16.70
2018-09-10T22:12:32.566Z,16.70
2018-09-10T22:15:00.294Z,16.60
2018-09-10T22:17:27.992Z,16.60
2018-09-10T22:19:55.766Z,16.60
2018-09-10T22:22:23.469Z,16.60
2018-09-10T22:24:51.194Z,16.60
2018-09-10T22:27:18.888Z,16.60
2018-09-10T22:29:46.589Z,16.60
2018-09-10T22:32:14.314Z,16.50
2018-09-10T22:34:42.014Z,16.50
2018-09-10T22:37:09.737Z,16.50
2018-09-10T22:39:37.421Z,16.50
2018-09-10T22:42:05.145Z,16.50
2018-09-10T22:44:32.841Z,16.50
2018-09-10T22:47:00.570Z,16.50
2018-09-10T22:49:28.291Z,16.50
2018-09-10T22:51:56.009Z,16.50
2018-09-10T22:54:23.724Z,16.50
2018-09-10T22:56:51.438Z,16.50
2018-09-10T22:59:19.181Z,16.40
2018-09-10T23:01:46.873Z,16.40
2018-09-10T23:04:14.581Z,16.30
2018-09-10T23:06:42.301Z,16.30
2018-09-10T23:09:10.241Z,16.30
2018-09-10T23:11:38.325Z,16.40
2018-09-10T23:14:06.057Z,16.40
2018-09-10T23:16:33.787Z,16.40
2018-09-10T23:19:01.511Z,16.40
2018-09-10T23:21:29.217Z,16.40
2018-09-10T23:23:56.937Z,16.40
2018-09-10T23:26:24.664Z,16.50
2018-09-10T23:28:52.421Z,16.40
2018-09-10T23:31:20.109Z,16.40
2018-09-10T23:33:47.809Z,16.40
2018-09-10T23:36:15.525Z,16.30
2018-09-10T23:38:43.233Z,16.20
2018-09-10T23:41:10.962Z,16.30
2018-09-10T23:43:38.688Z,16.30
2018-09-10T23:46:06.402Z,16.50
2018-09-10T23:48:34.129Z,16.60
2018-09-10T23:51:01.829Z,16.60
2018-09-10T23:53:29.588Z,16.50
2018-09-10T23:55:57.285Z,16.40
2018-09-10T23:58:25.009Z,16.40
